• Join FlightAware (Why Join?)
  • Login
  • US Flag 
01:36AM EDT


 

Airport Tracker/Info


-or-


 

Live Flight TrackerFlight Track Log ✈ QXE2340 ✈ 05-Nov-2013 ✈ KSEA - KMSO

Flight Track Log - Related Links

Times and Time Zones

All times are in EST time to prevent confusion due to time zone crossing. See the QXE2340 flight status page for this flight to view local times or setup timezone preferences in your user account.

Time Position Orientation Groundspeed Altitude Reporting Facility
EST Latitude Longitude Course Direction KTS MPH feet Rate Location/Type
12:46AM 47.4236 -121.4963 90° East  Level Estimated
12:47AM 47.4212 -121.3603 91° East  Level FlightAware Approximate
12:48AM 47.4160 -121.2245 90° East  Level Estimated
12:49AM 47.4107 -121.0887 98° East  Level Estimated
12:50AM 47.4053 -120.9530 92° East  Level Estimated
12:51AM 47.4027 -120.8171 92° East  Level FlightAware Approximate
12:52AM 47.3999 -120.6812 92° East  Level FlightAware Approximate
12:53AM 47.4171 -120.5461 79° East  Level FlightAware Approximate
12:54AM 47.4686 -120.4327 56° Northeast  Level FlightAware Approximate
12:55AM 47.4605 -120.2965 90° East  Level Estimated
12:56AM 47.4762 -120.1618 80° East  Level FlightAware Approximate
12:57AM 47.4673 -120.0257 90° East  Level Estimated
12:58AM 47.4698 -119.8890 88° East  Level FlightAware Approximate
12:59AM 47.4721 -119.7523 88° East  Level FlightAware Approximate
01:00AM 47.4743 -119.6156 89° East  Level FlightAware Approximate
01:01AM 47.4763 -119.4790 89° East  Level FlightAware Approximate
01:02AM 47.4781 -119.3422 89° East  Level FlightAware Approximate
01:03AM 47.4798 -119.2055 89° East  Level FlightAware Approximate
01:04AM 47.4814 -119.0688 89° East  Level FlightAware Approximate
01:05AM 47.4571 -118.9388 105° East  Level FlightAware Approximate
01:06AM 47.4326 -118.8090 106° East  Level FlightAware Approximate
01:07AM 47.4080 -118.6793 106° East  Level FlightAware Approximate
01:08AM 47.3826 -118.5420 97° East  Level FlightAware Approximate
01:09AM 47.3707 -118.4085 97° East  Level FlightAware Approximate
01:10AM 47.3585 -118.2731 98° East  Level FlightAware Approximate
01:11AM 47.3461 -118.1377 98° East  Level FlightAware Approximate
01:12AM 47.3336 -118.0024 98° East  Level FlightAware Approximate
01:13AM 47.3235 -117.8667 96° East  Level FlightAware Approximate
01:14AM 47.3133 -117.7310 96° East  Level FlightAware Approximate
01:15AM 47.3029 -117.5954 96° East  Level FlightAware Approximate
01:16AM 47.2924 -117.4598 96° East  Level FlightAware Approximate
01:17AM 47.2817 -117.3243 97° East  Level FlightAware Approximate
01:18AM 47.2709 -117.1888 97° East  Level FlightAware Approximate
01:19AM 47.2599 -117.0534 97° East  Level FlightAware Approximate
01:20AM 47.2486 -116.9177 97° East  Level FlightAware Approximate
01:21AM 47.2366 -116.7822 97° East  Level FlightAware Approximate
01:22AM 47.2253 -116.6552 97° East  Level FlightAware Approximate
01:23AM 47.2138 -116.5283 98° East  Level FlightAware Approximate
01:24AM 47.2038 -116.3913 96° East  Level FlightAware Approximate
01:25AM 47.1937 -116.2540 96° East  Level FlightAware Approximate
01:26AM 47.1833 -116.1169 96° East  Level FlightAware Approximate
01:27AM 47.1678 -115.9800 99° East  Level FlightAware Approximate
01:28AM 47.1521 -115.8433 100° East  Level FlightAware Approximate
01:29AM 47.1361 -115.7053 100° East  Level FlightAware Approximate
01:30AM 47.1199 -115.5674 100° East  Level FlightAware Approximate
01:31AM 47.1035 -115.4295 100° East  Level FlightAware Approximate
01:32AM 47.0917 -115.2908 96° East  Level FlightAware Approximate
01:33AM 47.0795 -115.1522 100° East  Level FlightAware Approximate
01:34AM 47.0667 -115.0142 90° East  Level FlightAware Approximate
01:35AM 47.0543 -114.8758 98° East  Level FlightAware Approximate
01:36AM 47.0334 -114.7446 90° East  Level FlightAware Approximate
01:37AM 47.0177 -114.6093 112° Southeast  Level FlightAware Approximate
01:38AM 46.9827 -114.4796 105° East  Level FlightAware Approximate
01:39AM 46.9582 -114.3447 105° East  Level FlightAware Approximate
01:40AM 46.9386 -114.2102 113° Southeast  Level FlightAware Approximate
01:41AM 46.9163 -114.0906 116° Southeast  Level Estimated
01:42AM 46.9163 -114.0906 116° Southeast  Level Estimated
01:43AM 46.9163 -114.0906 116° Southeast  Level Estimated
01:44AM 46.9163 -114.0906 116° Southeast  Level Estimated
01:45AM 46.9163 -114.0906 116° Southeast  Level Estimated
01:46AM 46.9163 -114.0906 116° Southeast  Level Estimated
01:47AM 46.9163 -114.0906 116° Southeast  Level Estimated
01:48AM 46.9163 -114.0906 116° Southeast  Level Estimated
01:49AM 46.9163 -114.0906 116° Southeast  Level Estimated
01:50AM 46.9163 -114.0906 116° Southeast  Level Estimated
01:51AM 46.9163 -114.0906 116° Southeast  Level Estimated
01:52AM 46.9163 -114.0906 116° Southeast  Level Estimated
01:53AM 46.9163 -114.0906 116° Southeast  Level Estimated
01:54AM 46.9163 -114.0906 116° Southeast  Level Estimated